createdAt,value
2024-05-09T00:00:41.652Z,10.54
2024-05-09T00:03:10.483Z,10.95
2024-05-09T00:05:42.259Z,10.14
2024-05-09T00:08:10.675Z,9.83
2024-05-09T00:10:39.625Z,10.41
2024-05-09T00:13:11.118Z,9.48
2024-05-09T00:15:38.837Z,10.83
2024-05-09T00:18:08.694Z,10.44
2024-05-09T00:20:40.430Z,10.68
2024-05-09T00:23:10.863Z,9.49
2024-05-09T00:25:43.016Z,9.30
2024-05-09T00:28:12.978Z,9.74
2024-05-09T00:30:40.438Z,8.40
2024-05-09T00:33:09.618Z,9.24
2024-05-09T00:35:41.474Z,8.47
2024-05-09T00:38:08.546Z,9.97
2024-05-09T00:40:43.580Z,9.66
2024-05-09T00:43:17.056Z,8.45
2024-05-09T00:45:44.344Z,8.45
2024-05-09T00:48:14.978Z,9.76
2024-05-09T00:50:46.851Z,8.91
2024-05-09T00:53:18.072Z,9.24
2024-05-09T00:55:46.858Z,10.17
2024-05-09T00:58:16.681Z,10.45
2024-05-09T01:00:44.115Z,10.84
2024-05-09T01:03:13.166Z,10.52
2024-05-09T01:05:46.958Z,9.75
2024-05-09T01:08:14.044Z,10.72
2024-05-09T01:10:44.215Z,10.70
2024-05-09T01:13:13.563Z,10.86
2024-05-09T01:15:40.484Z,10.10
2024-05-09T01:18:11.646Z,9.63
2024-05-09T01:20:43.137Z,8.04
2024-05-09T01:23:16.127Z,10.46
2024-05-09T01:25:45.130Z,10.59
2024-05-09T01:28:12.768Z,10.94
2024-05-09T01:30:39.784Z,10.83
2024-05-09T01:33:09.042Z,10.73
2024-05-09T01:35:39.060Z,9.53
2024-05-09T01:38:07.565Z,9.82
2024-05-09T01:40:38.600Z,9.32
2024-05-09T01:43:11.597Z,10.65
2024-05-09T01:45:40.169Z,10.46
2024-05-09T01:48:09.661Z,8.62
2024-05-09T01:50:40.880Z,10.24
2024-05-09T01:53:14.862Z,10.86
2024-05-09T01:55:42.383Z,10.16
2024-05-09T01:58:11.748Z,10.46
2024-05-09T02:00:42.230Z,9.32
2024-05-09T02:03:17.076Z,10.57
2024-05-09T02:05:47.055Z,9.87
2024-05-09T02:08:19.522Z,10.25
2024-05-09T02:10:51.103Z,9.56
2024-05-09T02:13:20.430Z,10.04
2024-05-09T02:15:47.379Z,9.43
2024-05-09T02:18:15.855Z,10.84
2024-05-09T02:20:43.563Z,8.43
2024-05-09T02:23:11.052Z,9.61
2024-05-09T02:25:41.676Z,9.38
2024-05-09T02:28:19.266Z,10.14
2024-05-09T02:30:46.174Z,10.80
2024-05-09T02:33:14.450Z,9.48
2024-05-09T02:35:43.331Z,10.67
2024-05-09T02:38:15.738Z,8.65
2024-05-09T02:40:42.824Z,10.24
2024-05-09T02:43:13.363Z,8.75
2024-05-09T02:45:50.823Z,8.44
2024-05-09T02:48:22.503Z,8.32
2024-05-09T02:50:51.392Z,9.53
2024-05-09T02:53:22.208Z,10.20
2024-05-09T02:55:49.241Z,9.14
2024-05-09T02:58:16.368Z,8.17
2024-05-09T03:00:48.257Z,8.43
2024-05-09T03:03:15.869Z,9.35
2024-05-09T03:05:46.592Z,9.80
2024-05-09T03:08:14.470Z,10.27
2024-05-09T03:10:41.731Z,10.40
2024-05-09T03:13:10.079Z,10.32
2024-05-09T03:15:37.334Z,9.30
2024-05-09T03:18:06.250Z,9.72
2024-05-09T03:20:35.633Z,10.05
2024-05-09T03:23:05.484Z,10.43
2024-05-09T03:25:33.473Z,9.37
2024-05-09T03:28:00.374Z,10.42
2024-05-09T03:30:38.802Z,10.66
2024-05-09T03:33:15.667Z,10.34
2024-05-09T03:35:46.522Z,10.44
2024-05-09T03:38:13.723Z,10.13
2024-05-09T03:40:48.861Z,10.76
2024-05-09T03:43:17.025Z,9.95
2024-05-09T03:45:47.530Z,10.32
2024-05-09T03:48:14.790Z,8.42
2024-05-09T03:50:44.562Z,8.43
2024-05-09T03:53:15.289Z,9.58
2024-05-09T03:55:42.425Z,10.54
2024-05-09T03:58:10.669Z,10.05
2024-05-09T04:00:39.592Z,9.08
2024-05-09T04:03:10.210Z,10.15
2024-05-09T04:05:41.371Z,10.58
2024-05-09T04:08:10.564Z,10.46
2024-05-09T04:10:37.918Z,9.79
2024-05-09T04:13:05.276Z,9.96
2024-05-09T04:15:35.022Z,9.92
2024-05-09T04:18:02.815Z,9.66
2024-05-09T04:20:37.945Z,8.50
2024-05-09T04:23:14.721Z,8.32
2024-05-09T04:25:44.963Z,9.40
2024-05-09T04:28:15.175Z,9.94
2024-05-09T04:30:43.679Z,10.10
2024-05-09T04:33:13.420Z,9.66
2024-05-09T04:35:46.060Z,8.55
2024-05-09T04:38:13.962Z,10.70
2024-05-09T04:40:41.795Z,9.37
2024-05-09T04:43:15.677Z,8.73
2024-05-09T04:45:44.430Z,9.95
2024-05-09T04:48:11.921Z,9.69
2024-05-09T04:50:39.846Z,10.14
2024-05-09T04:53:18.162Z,9.58
2024-05-09T04:55:45.959Z,8.85
2024-05-09T04:58:15.564Z,8.79
2024-05-09T05:00:45.031Z,8.71
2024-05-09T05:03:14.644Z,10.55
2024-05-09T05:05:50.634Z,8.27
2024-05-09T05:08:21.018Z,9.04
2024-05-09T05:10:50.849Z,9.43
2024-05-09T05:13:24.123Z,9.88
2024-05-09T05:15:55.751Z,8.60
2024-05-09T05:18:26.479Z,9.47
2024-05-09T05:20:58.818Z,9.26
2024-05-09T05:23:28.147Z,8.60
2024-05-09T05:25:55.488Z,10.58
2024-05-09T05:28:24.304Z,10.67
2024-05-09T05:30:51.327Z,9.60
2024-05-09T05:33:27.194Z,9.09
2024-05-09T05:36:06.477Z,9.62
2024-05-09T05:38:33.654Z,10.17
2024-05-09T05:41:03.325Z,10.60
2024-05-09T05:43:30.276Z,10.03
2024-05-09T05:46:03.128Z,10.16
2024-05-09T05:48:30.091Z,9.71
2024-05-09T05:50:57.041Z,11.03
2024-05-09T05:53:35.479Z,10.58
2024-05-09T05:56:05.961Z,8.93
2024-05-09T05:58:33.005Z,9.78
2024-05-09T06:01:00.082Z,10.55
2024-05-09T06:03:29.236Z,10.50
2024-05-09T06:05:56.409Z,10.24
2024-05-09T06:08:39.943Z,11.25
2024-05-09T06:11:09.383Z,9.70
2024-05-09T06:13:40.859Z,10.39
2024-05-09T06:16:07.816Z,10.65
2024-05-09T06:18:35.406Z,9.42
2024-05-09T06:21:02.704Z,10.34
2024-05-09T06:23:30.248Z,9.75
2024-05-09T06:26:02.047Z,11.26
2024-05-09T06:28:28.997Z,11.34
2024-05-09T06:30:57.434Z,10.33
2024-05-09T06:33:24.682Z,10.64
2024-05-09T06:35:56.691Z,11.25
2024-05-09T06:38:33.254Z,11.05
2024-05-09T06:41:00.417Z,10.42
2024-05-09T06:43:30.205Z,9.94
2024-05-09T06:45:59.818Z,10.87
2024-05-09T06:48:27.544Z,10.97
2024-05-09T06:50:54.713Z,11.89
2024-05-09T06:53:28.044Z,11.94
2024-05-09T06:55:57.787Z,11.18
2024-05-09T06:58:28.442Z,11.30
2024-05-09T07:00:57.928Z,10.85
2024-05-09T07:03:27.531Z,9.89
2024-05-09T07:05:56.013Z,11.55
2024-05-09T07:08:25.379Z,10.26
2024-05-09T07:10:52.657Z,11.93
2024-05-09T07:13:19.843Z,11.95
2024-05-09T07:15:46.655Z,12.41
2024-05-09T07:18:18.652Z,12.48
2024-05-09T07:20:47.773Z,10.69
2024-05-09T07:23:15.941Z,12.46
2024-05-09T07:25:43.338Z,11.04
2024-05-09T07:28:14.769Z,12.55
2024-05-09T07:30:42.770Z,10.55
2024-05-09T07:33:09.965Z,11.29
2024-05-09T07:35:37.150Z,12.02
2024-05-09T07:38:04.343Z,12.40
2024-05-09T07:40:36.002Z,11.48
2024-05-09T07:43:08.511Z,11.90
2024-05-09T07:53:36.767Z,12.36
2024-05-09T07:55:56.468Z,11.38
2024-05-09T07:58:29.085Z,11.97
2024-05-09T08:01:03.966Z,11.44
2024-05-09T08:03:34.324Z,13.08
2024-05-09T08:06:01.449Z,11.94
2024-05-09T08:08:31.040Z,13.22
2024-05-09T08:11:00.045Z,13.37
2024-05-09T08:13:28.994Z,12.46
2024-05-09T08:15:56.058Z,12.68
2024-05-09T08:18:23.473Z,12.59
2024-05-09T08:20:51.984Z,13.36
2024-05-09T08:23:18.886Z,13.11
2024-05-09T08:25:47.939Z,12.29
2024-05-09T08:28:17.746Z,13.60
2024-05-09T08:30:45.163Z,12.97
2024-05-09T08:33:12.506Z,13.29
2024-05-09T08:35:39.656Z,12.12
2024-05-09T08:38:07.520Z,12.80
2024-05-09T08:40:37.403Z,12.64
2024-05-09T08:43:11.457Z,13.93
2024-05-09T08:45:44.845Z,13.94
2024-05-09T08:48:15.674Z,13.41
2024-05-09T08:50:45.093Z,14.42
2024-05-09T08:53:16.718Z,13.35
2024-05-09T08:55:48.879Z,13.34
2024-05-09T08:58:21.527Z,12.87
2024-05-09T09:00:49.700Z,13.69
2024-05-09T09:03:25.722Z,13.54
2024-05-09T09:06:09.168Z,14.08
2024-05-09T09:08:45.272Z,13.96
2024-05-09T09:11:12.456Z,14.23
2024-05-09T09:13:41.368Z,13.53
2024-05-09T09:16:08.438Z,12.83
2024-05-09T09:18:35.506Z,13.72
2024-05-09T09:21:03.381Z,13.64
2024-05-09T09:23:31.077Z,13.22
2024-05-09T09:26:07.747Z,12.79
2024-05-09T09:28:39.083Z,13.45
2024-05-09T09:31:06.161Z,13.83
2024-05-09T09:33:45.358Z,12.10
2024-05-09T09:36:15.307Z,13.08
2024-05-09T09:38:43.149Z,13.52
2024-05-09T09:41:17.654Z,12.03
2024-05-09T09:43:48.064Z,13.62
2024-05-09T09:46:19.102Z,13.70
2024-05-09T09:48:47.145Z,13.43
2024-05-09T09:51:19.743Z,12.82
2024-05-09T09:53:49.680Z,13.18
2024-05-09T09:56:20.795Z,12.76
2024-05-09T09:58:52.332Z,12.83
2024-05-09T10:01:22.647Z,13.71
2024-05-09T10:03:53.458Z,13.14
2024-05-09T10:06:21.821Z,13.79
2024-05-09T10:08:49.700Z,13.34
2024-05-09T10:11:21.539Z,12.67
2024-05-09T10:13:50.960Z,12.67
2024-05-09T10:16:24.686Z,13.05
2024-05-09T10:19:03.926Z,14.41
2024-05-09T10:21:36.019Z,13.02
2024-05-09T10:24:06.587Z,12.84
2024-05-09T10:26:37.588Z,13.21
2024-05-09T10:29:34.265Z,13.88
2024-05-09T10:32:03.052Z,13.36
2024-05-09T10:34:44.315Z,14.19
2024-05-09T10:37:11.609Z,11.78
2024-05-09T10:39:39.465Z,12.88
2024-05-09T10:42:10.373Z,14.32
2024-05-09T10:44:48.892Z,14.06
2024-05-09T10:47:16.204Z,12.83
2024-05-09T10:49:54.911Z,11.97
2024-05-09T10:52:22.832Z,13.98
2024-05-09T10:55:01.040Z,13.05
2024-05-09T10:57:39.722Z,13.68
2024-05-09T11:00:27.710Z,13.17
2024-05-09T11:03:02.786Z,13.33
2024-05-09T11:05:42.935Z,13.64
2024-05-09T11:08:11.718Z,14.12
2024-05-09T11:10:40.034Z,13.64
2024-05-09T11:13:11.836Z,12.34
2024-05-09T11:15:42.894Z,13.22
2024-05-09T11:18:25.605Z,12.86
2024-05-09T11:20:54.640Z,14.48
2024-05-09T11:23:22.865Z,13.75
2024-05-09T11:25:54.249Z,14.46
2024-05-09T11:28:21.688Z,14.45
2024-05-09T11:30:50.601Z,14.53
2024-05-09T11:33:19.757Z,14.50
2024-05-09T11:35:47.295Z,13.41
2024-05-09T11:38:16.578Z,13.33
2024-05-09T11:40:46.146Z,13.64
2024-05-09T11:43:13.191Z,13.97
2024-05-09T11:45:40.654Z,14.38
2024-05-09T11:48:14.640Z,13.28
2024-05-09T11:50:43.053Z,14.81
2024-05-09T11:53:14.011Z,13.52
2024-05-09T11:55:43.374Z,13.25
2024-05-09T11:58:19.697Z,13.97
2024-05-09T12:00:47.556Z,13.08
2024-05-09T12:03:25.680Z,14.45
2024-05-09T12:06:12.497Z,15.16
2024-05-09T12:08:46.507Z,14.09
2024-05-09T12:11:39.947Z,13.10
2024-05-09T12:14:20.680Z,14.22
2024-05-09T12:16:54.247Z,15.03
2024-05-09T12:19:24.716Z,14.48
2024-05-09T12:21:53.477Z,14.58
2024-05-09T12:24:30.220Z,13.79
2024-05-09T12:26:59.713Z,15.64
2024-05-09T12:29:30.375Z,14.61
2024-05-09T12:32:03.843Z,14.84
2024-05-09T12:34:31.251Z,14.39
2024-05-09T12:37:02.788Z,15.21
2024-05-09T12:39:30.046Z,16.05
2024-05-09T12:41:59.130Z,14.19
2024-05-09T12:44:28.562Z,16.25
2024-05-09T12:46:57.946Z,15.13
2024-05-09T12:49:25.439Z,16.00
2024-05-09T12:51:56.137Z,14.29
2024-05-09T12:54:23.217Z,14.90
2024-05-09T12:57:03.577Z,14.28
2024-05-09T12:59:32.015Z,16.08
2024-05-09T13:02:02.520Z,15.93
2024-05-09T13:04:32.335Z,15.81
2024-05-09T13:06:59.902Z,16.32
2024-05-09T13:09:27.312Z,16.72
2024-05-09T13:11:54.331Z,16.32
2024-05-09T13:14:21.509Z,15.78
2024-05-09T13:16:48.644Z,15.30
2024-05-09T13:19:16.705Z,15.95
2024-05-09T13:21:43.930Z,16.24
2024-05-09T13:24:11.320Z,14.66
2024-05-09T13:26:40.929Z,15.19
2024-05-09T13:29:07.948Z,16.53
2024-05-09T13:31:35.117Z,15.59
2024-05-09T13:34:02.123Z,17.17
2024-05-09T13:36:29.730Z,16.65
2024-05-09T13:38:59.361Z,16.00
2024-05-09T13:41:26.252Z,16.58
2024-05-09T13:44:06.066Z,15.61
2024-05-09T13:46:36.598Z,15.51
2024-05-09T13:49:04.061Z,15.94
2024-05-09T13:51:31.761Z,15.60
2024-05-09T13:53:59.439Z,15.97
2024-05-09T13:56:26.360Z,16.76
2024-05-09T13:58:55.938Z,15.77
2024-05-09T14:01:25.577Z,15.86
2024-05-09T14:03:52.782Z,16.17
2024-05-09T14:06:22.439Z,16.77
2024-05-09T14:08:49.438Z,16.77
2024-05-09T14:11:16.625Z,16.69
2024-05-09T14:13:43.496Z,16.89
2024-05-09T14:16:10.782Z,16.36
2024-05-09T14:18:37.994Z,16.13
2024-05-09T14:21:07.434Z,15.39
2024-05-09T14:23:34.533Z,16.21
2024-05-09T14:26:04.185Z,15.95
2024-05-09T14:28:31.194Z,17.06
2024-05-09T14:31:02.978Z,16.72
2024-05-09T14:33:32.632Z,15.76
2024-05-09T14:35:59.749Z,15.55
2024-05-09T14:38:32.225Z,16.67
2024-05-09T14:40:59.161Z,17.29
2024-05-09T14:43:26.661Z,15.54
2024-05-09T14:45:53.962Z,17.10
2024-05-09T14:48:21.326Z,15.62
2024-05-09T14:50:50.969Z,16.00
2024-05-09T14:53:20.246Z,15.64
2024-05-09T14:55:50.793Z,16.52
2024-05-09T14:58:19.396Z,17.15
2024-05-09T15:00:50.219Z,16.37
2024-05-09T15:03:20.754Z,15.76
2024-05-09T15:05:48.934Z,17.00
2024-05-09T15:08:18.198Z,16.55
2024-05-09T15:10:50.051Z,17.02
2024-05-09T15:13:18.048Z,17.32
2024-05-09T15:15:47.106Z,16.27
2024-05-09T15:18:15.212Z,15.29
2024-05-09T15:20:46.245Z,16.58
2024-05-09T15:23:13.828Z,15.40
2024-05-09T15:25:44.985Z,15.63
2024-05-09T15:28:20.976Z,15.31
2024-05-09T15:31:00.638Z,15.34
2024-05-09T15:33:28.209Z,15.19
2024-05-09T15:36:04.040Z,15.52
2024-05-09T15:38:34.359Z,16.16
2024-05-09T15:41:03.707Z,17.30
2024-05-09T15:43:33.145Z,17.01
2024-05-09T15:46:02.713Z,16.49
2024-05-09T15:48:29.948Z,15.58
2024-05-09T15:51:01.933Z,16.34
2024-05-09T15:53:35.567Z,16.57
2024-05-09T15:56:05.568Z,16.38
2024-05-09T15:58:44.451Z,16.10
2024-05-09T16:01:12.784Z,16.72
2024-05-09T16:03:41.365Z,15.44
2024-05-09T16:06:08.384Z,16.87
2024-05-09T16:08:36.701Z,16.29
2024-05-09T16:11:03.814Z,17.15
2024-05-09T16:13:30.835Z,15.39
2024-05-09T16:16:08.170Z,15.73
2024-05-09T16:18:40.287Z,16.93
2024-05-09T16:21:10.856Z,16.74
2024-05-09T16:23:39.886Z,16.26
2024-05-09T16:26:07.519Z,15.90
2024-05-09T16:28:38.370Z,16.42
2024-05-09T16:31:06.825Z,14.84
2024-05-09T16:33:33.967Z,15.86
2024-05-09T16:36:04.461Z,16.19
2024-05-09T16:38:45.617Z,16.39
2024-05-09T16:41:16.617Z,15.26
2024-05-09T16:43:43.707Z,15.28
2024-05-09T16:46:21.182Z,14.76
2024-05-09T16:48:53.742Z,15.47
2024-05-09T16:51:23.447Z,14.89
2024-05-09T16:53:50.535Z,15.53
2024-05-09T16:56:20.056Z,15.37
2024-05-09T16:58:47.147Z,15.61
2024-05-09T17:01:16.477Z,15.57
2024-05-09T17:03:51.436Z,15.22
2024-05-09T17:06:18.559Z,15.97
2024-05-09T17:08:45.529Z,15.23
2024-05-09T17:11:17.432Z,16.05
2024-05-09T17:13:51.833Z,15.38
2024-05-09T17:16:29.405Z,15.30
2024-05-09T17:18:57.812Z,14.51
2024-05-09T17:21:25.011Z,15.60
2024-05-09T17:23:54.378Z,14.67
2024-05-09T17:26:24.057Z,15.59
2024-05-09T17:28:51.098Z,15.16
2024-05-09T17:31:18.198Z,15.70
2024-05-09T17:33:46.745Z,16.34
2024-05-09T17:36:18.219Z,15.67
2024-05-09T17:38:45.329Z,14.86
2024-05-09T17:41:12.514Z,14.82
2024-05-09T17:43:39.679Z,16.11
2024-05-09T17:46:09.136Z,15.99
2024-05-09T17:48:40.808Z,15.27
2024-05-09T17:51:07.972Z,14.41
2024-05-09T17:53:34.927Z,15.41
2024-05-09T17:56:05.063Z,14.91
2024-05-09T17:58:36.107Z,15.04
2024-05-09T18:01:07.963Z,14.19
2024-05-09T18:03:38.386Z,14.43
2024-05-09T18:06:07.007Z,14.96
2024-05-09T18:08:38.648Z,14.53
2024-05-09T18:11:05.786Z,14.78
2024-05-09T18:13:32.886Z,14.51
2024-05-09T18:16:00.157Z,14.05
2024-05-09T18:18:27.605Z,13.76
2024-05-09T18:20:54.727Z,15.48
2024-05-09T18:23:21.797Z,14.21
2024-05-09T18:25:48.859Z,14.96
2024-05-09T18:28:16.912Z,15.78
2024-05-09T18:30:44.515Z,15.09
2024-05-09T18:33:15.936Z,15.44
2024-05-09T18:35:44.296Z,15.41
2024-05-09T18:38:14.076Z,13.25
2024-05-09T18:40:42.979Z,13.97
2024-05-09T18:43:11.862Z,14.09
2024-05-09T18:45:41.358Z,14.25
2024-05-09T18:48:12.247Z,14.23
2024-05-09T18:50:42.101Z,15.10
2024-05-09T18:53:11.730Z,14.43
2024-05-09T18:55:41.266Z,14.74
2024-05-09T18:58:10.939Z,14.06
2024-05-09T19:00:40.464Z,15.19
2024-05-09T19:03:12.789Z,15.20
2024-05-09T19:05:43.284Z,14.30
2024-05-09T19:08:11.679Z,14.78
2024-05-09T19:10:39.598Z,13.81
2024-05-09T19:13:11.823Z,14.34
2024-05-09T19:15:41.063Z,14.58
2024-05-09T19:18:11.717Z,14.76
2024-05-09T19:20:39.407Z,14.55
2024-05-09T19:23:07.590Z,13.81
2024-05-09T19:25:35.858Z,12.41
2024-05-09T19:28:06.858Z,13.67
2024-05-09T19:30:39.967Z,12.00
2024-05-09T19:33:10.896Z,12.61
2024-05-09T19:35:39.249Z,13.48
2024-05-09T19:38:06.561Z,13.63
2024-05-09T19:40:35.789Z,13.98
2024-05-09T19:43:05.268Z,12.15
2024-05-09T19:45:34.611Z,13.54
2024-05-09T19:48:02.895Z,14.08
2024-05-09T19:50:40.177Z,14.05
2024-05-09T19:53:11.556Z,14.16
2024-05-09T19:55:38.792Z,13.93
2024-05-09T19:58:08.568Z,12.90
2024-05-09T20:00:39.022Z,13.15
2024-05-09T20:03:08.578Z,13.45
2024-05-09T20:05:36.592Z,13.44
2024-05-09T20:08:05.902Z,13.33
2024-05-09T20:10:36.060Z,11.75
2024-05-09T20:13:06.021Z,12.32
2024-05-09T20:15:35.653Z,12.82
2024-05-09T20:18:12.620Z,11.92
2024-05-09T20:20:43.576Z,12.49
2024-05-09T20:23:14.304Z,12.06
2024-05-09T20:25:46.382Z,12.44
2024-05-09T20:28:13.568Z,11.03
2024-05-09T20:30:40.698Z,12.72
2024-05-09T20:33:09.064Z,13.10
2024-05-09T20:35:36.914Z,12.76
2024-05-09T20:38:07.011Z,12.37
2024-05-09T20:40:38.957Z,10.98
2024-05-09T20:43:10.551Z,11.27
2024-05-09T20:45:38.152Z,11.82
2024-05-09T20:48:13.314Z,10.99
2024-05-09T20:50:43.745Z,11.29
2024-05-09T20:53:13.665Z,10.46
2024-05-09T20:55:42.458Z,12.05
2024-05-09T20:58:10.216Z,12.26
2024-05-09T21:00:41.140Z,12.04
2024-05-09T21:03:11.606Z,12.00
2024-05-09T21:05:39.400Z,12.06
2024-05-09T21:08:07.153Z,12.67
2024-05-09T21:10:35.525Z,12.67
2024-05-09T21:13:03.679Z,12.37
2024-05-09T21:15:42.692Z,12.42
2024-05-09T21:18:11.195Z,10.56
2024-05-09T21:20:38.340Z,10.09
2024-05-09T21:23:05.609Z,10.81
2024-05-09T21:25:32.641Z,11.09
2024-05-09T21:28:02.445Z,11.79
2024-05-09T21:30:38.593Z,11.05
2024-05-09T21:33:13.892Z,9.82
2024-05-09T21:35:45.415Z,10.80
2024-05-09T21:38:16.568Z,11.58
2024-05-09T21:40:46.768Z,12.16
2024-05-09T21:43:14.346Z,12.04
2024-05-09T21:45:41.580Z,11.68
2024-05-09T21:48:08.933Z,12.13
2024-05-09T21:50:41.200Z,11.43
2024-05-09T21:53:10.812Z,11.34
2024-05-09T21:55:37.792Z,11.90
2024-05-09T21:58:04.870Z,11.58
2024-05-09T22:00:36.605Z,11.47
2024-05-09T22:03:12.304Z,11.64
2024-05-09T22:05:46.957Z,10.91
2024-05-09T22:08:13.771Z,12.04
2024-05-09T22:10:40.708Z,11.92
2024-05-09T22:13:08.777Z,11.82
2024-05-09T22:15:38.158Z,11.65
2024-05-09T22:18:08.481Z,11.70
2024-05-09T22:20:38.976Z,10.33
2024-05-09T22:23:08.393Z,11.91
2024-05-09T22:25:36.431Z,11.78
2024-05-09T22:28:06.587Z,11.11
2024-05-09T22:30:37.667Z,9.76
2024-05-09T22:33:10.672Z,10.19
2024-05-09T22:35:39.478Z,10.95
2024-05-09T22:38:06.419Z,10.78
2024-05-09T22:40:42.908Z,9.66
2024-05-09T22:43:23.374Z,11.00
2024-05-09T22:45:55.128Z,11.16
2024-05-09T22:48:23.864Z,11.03
2024-05-09T22:50:54.538Z,11.54
2024-05-09T22:53:25.328Z,10.70
2024-05-09T22:55:52.623Z,10.16
2024-05-09T22:58:20.923Z,10.39
2024-05-09T23:00:50.486Z,9.88
2024-05-09T23:03:23.037Z,11.06
2024-05-09T23:05:53.138Z,9.84
2024-05-09T23:08:24.953Z,10.05
2024-05-09T23:10:57.411Z,11.34
2024-05-09T23:13:43.564Z,9.14
2024-05-09T23:16:10.560Z,10.15
2024-05-09T23:18:40.324Z,10.24
2024-05-09T23:21:07.375Z,10.72
2024-05-09T23:23:40.817Z,10.18
2024-05-09T23:26:07.716Z,11.22
2024-05-09T23:28:34.795Z,8.93
2024-05-09T23:31:09.185Z,9.64
2024-05-09T23:33:36.268Z,10.14
2024-05-09T23:36:03.191Z,10.67
2024-05-09T23:38:34.864Z,10.40
2024-05-09T23:41:02.048Z,9.54
2024-05-09T23:43:29.152Z,9.25
2024-05-09T23:45:56.223Z,9.60
2024-05-09T23:48:26.175Z,9.47
2024-05-09T23:50:53.274Z,9.60
2024-05-09T23:53:21.179Z,9.94
2024-05-09T23:55:50.602Z,9.08
2024-05-09T23:58:17.616Z,10.58
